createdAt,value
2022-09-17T00:01:31.329Z,50.40
2022-09-17T00:04:04.250Z,50.41
2022-09-17T00:06:35.003Z,50.47
2022-09-17T00:09:05.244Z,50.34
2022-09-17T00:11:36.286Z,50.21
2022-09-17T00:14:05.539Z,50.46
2022-09-17T00:16:35.834Z,50.62
2022-09-17T00:19:05.865Z,50.48
2022-09-17T00:21:33.248Z,50.28
2022-09-17T00:24:03.950Z,50.30
2022-09-17T00:26:33.008Z,50.17
2022-09-17T00:29:01.349Z,50.27
2022-09-17T00:31:30.793Z,50.31
2022-09-17T00:34:00.060Z,50.12
2022-09-17T00:36:27.740Z,50.03
2022-09-17T00:38:58.481Z,50.29
2022-09-17T00:41:31.217Z,50.19
2022-09-17T00:44:42.843Z,49.82
2022-09-17T00:47:24.586Z,50.01
2022-09-17T00:50:33.777Z,50.33
2022-09-17T00:53:12.718Z,50.26
2022-09-17T00:56:13.368Z,50.11
2022-09-17T00:58:41.498Z,50.25
2022-09-17T01:01:08.948Z,50.05
2022-09-17T01:03:36.635Z,50.47
2022-09-17T01:06:45.830Z,50.14
2022-09-17T01:10:16.777Z,50.32
2022-09-17T01:13:17.348Z,51.06
2022-09-17T01:16:25.719Z,51.21
2022-09-17T01:19:31.131Z,50.86
2022-09-17T01:22:38.995Z,50.72
2022-09-17T01:25:25.149Z,50.92
2022-09-17T01:28:21.471Z,50.77
2022-09-17T01:30:57.808Z,50.90
2022-09-17T01:33:39.840Z,50.44
2022-09-17T01:36:32.935Z,50.90
2022-09-17T01:39:08.911Z,50.90
2022-09-17T01:42:14.693Z,50.85
2022-09-17T01:45:27.611Z,50.81
2022-09-17T01:48:02.414Z,50.77
2022-09-17T01:50:38.288Z,51.08
2022-09-17T01:53:08.167Z,50.67
2022-09-17T01:55:39.634Z,50.99
2022-09-17T01:58:16.721Z,50.92
2022-09-17T02:00:52.346Z,51.23
2022-09-17T02:03:35.057Z,50.71
2022-09-17T02:06:19.267Z,50.78
2022-09-17T02:08:55.296Z,50.62
2022-09-17T02:11:23.102Z,50.66
2022-09-17T02:13:59.025Z,50.60
2022-09-17T02:16:29.590Z,51.36
2022-09-17T02:19:15.843Z,51.30
2022-09-17T02:21:47.312Z,50.83
2022-09-17T02:24:26.635Z,50.86
2022-09-17T02:27:05.877Z,50.75
2022-09-17T02:29:41.920Z,50.88
2022-09-17T02:32:10.342Z,50.74
2022-09-17T02:34:38.216Z,51.28
2022-09-17T02:37:06.662Z,51.33
2022-09-17T02:39:34.047Z,51.18
2022-09-17T02:42:23.350Z,51.50
2022-09-17T02:45:06.690Z,51.48
2022-09-17T02:48:07.868Z,51.72
2022-09-17T02:50:47.030Z,51.67
2022-09-17T02:53:57.027Z,51.88
2022-09-17T02:56:35.291Z,51.91
2022-09-17T02:59:25.320Z,51.53
2022-09-17T03:01:58.997Z,51.69
2022-09-17T03:04:29.080Z,52.02
2022-09-17T03:06:56.943Z,52.02
2022-09-17T03:09:23.963Z,51.82
2022-09-17T03:11:51.066Z,51.75
2022-09-17T03:14:20.790Z,51.93
2022-09-17T03:16:48.141Z,52.06
2022-09-17T03:19:15.534Z,51.64
2022-09-17T03:21:42.597Z,51.87
2022-09-17T03:24:11.642Z,52.07
2022-09-17T03:26:39.178Z,51.87
2022-09-17T03:29:06.389Z,52.12
2022-09-17T03:31:33.781Z,51.75
2022-09-17T03:34:00.810Z,52.51
2022-09-17T03:36:27.964Z,52.32
2022-09-17T03:38:59.188Z,52.49
2022-09-17T03:41:27.286Z,52.54
2022-09-17T03:43:54.326Z,52.70
2022-09-17T03:46:21.823Z,53.14
2022-09-17T03:48:48.913Z,52.80
2022-09-17T03:51:16.085Z,52.76
2022-09-17T03:53:43.192Z,53.43
2022-09-17T03:56:10.267Z,53.80
2022-09-17T03:58:37.443Z,53.63
2022-09-17T04:01:04.871Z,53.94
2022-09-17T04:03:32.779Z,53.73
2022-09-17T04:05:59.908Z,54.25
2022-09-17T04:08:27.141Z,54.15
2022-09-17T04:10:54.368Z,54.15
2022-09-17T04:13:21.770Z,54.37
2022-09-17T04:15:49.171Z,54.59
2022-09-17T04:18:16.585Z,55.17
2022-09-17T04:20:43.751Z,54.80
2022-09-17T04:23:12.548Z,54.70
2022-09-17T04:25:39.746Z,54.80
2022-09-17T04:28:07.635Z,55.20
2022-09-17T04:30:34.837Z,55.67
2022-09-17T04:33:01.950Z,56.06
2022-09-17T04:35:29.148Z,56.20
2022-09-17T04:37:58.225Z,56.15
2022-09-17T04:40:28.023Z,56.25
2022-09-17T04:42:57.253Z,57.12
2022-09-17T04:45:24.252Z,57.57
2022-09-17T04:47:51.681Z,57.72
2022-09-17T04:50:19.942Z,57.90
2022-09-17T04:52:48.139Z,57.77
2022-09-17T04:55:16.501Z,57.77
2022-09-17T04:57:52.513Z,57.64
2022-09-17T05:00:22.233Z,57.77
2022-09-17T05:02:53.319Z,58.42
2022-09-17T05:05:21.549Z,58.66
2022-09-17T05:07:49.090Z,58.46
2022-09-17T05:10:18.669Z,58.35
2022-09-17T05:12:56.186Z,58.35
2022-09-17T05:15:25.975Z,59.74
2022-09-17T05:17:53.543Z,59.62
2022-09-17T05:20:20.789Z,59.63
2022-09-17T05:22:52.693Z,60.11
2022-09-17T05:25:25.164Z,60.10
2022-09-17T05:27:53.654Z,60.16
2022-09-17T05:30:21.305Z,60.16
2022-09-17T05:32:48.867Z,59.69
2022-09-17T05:35:16.059Z,59.00
2022-09-17T05:37:43.162Z,59.32
2022-09-17T05:40:10.594Z,59.33
2022-09-17T05:42:37.844Z,58.73
2022-09-17T05:45:05.654Z,58.35
2022-09-17T05:47:32.792Z,58.21
2022-09-17T05:50:00.714Z,58.41
2022-09-17T05:52:29.010Z,58.50
2022-09-17T05:54:56.677Z,58.66
2022-09-17T05:57:24.433Z,58.66
2022-09-17T05:59:51.569Z,58.88
2022-09-17T06:02:18.900Z,59.58
2022-09-17T06:04:46.512Z,59.87
2022-09-17T06:07:13.958Z,59.60
2022-09-17T06:09:41.254Z,59.04
2022-09-17T06:12:08.755Z,59.85
2022-09-17T06:14:36.119Z,59.81
2022-09-17T06:17:03.285Z,59.71
2022-09-17T06:19:30.395Z,59.15
2022-09-17T06:21:57.684Z,59.06
2022-09-17T06:24:24.751Z,59.40
2022-09-17T06:26:52.729Z,59.24
2022-09-17T06:29:20.974Z,59.29
2022-09-17T06:31:49.589Z,58.94
2022-09-17T06:34:17.828Z,58.75
2022-09-17T06:36:44.910Z,59.06
2022-09-17T06:39:12.270Z,59.14
2022-09-17T06:41:39.694Z,58.90
2022-09-17T06:44:06.803Z,59.25
2022-09-17T06:46:33.988Z,59.21
2022-09-17T06:49:01.278Z,59.29
2022-09-17T06:51:28.346Z,59.03
2022-09-17T06:53:55.482Z,59.97
2022-09-17T06:56:23.163Z,60.29
2022-09-17T06:58:52.971Z,59.23
2022-09-17T07:01:20.229Z,60.00
2022-09-17T07:03:49.401Z,60.14
2022-09-17T07:06:16.554Z,59.66
2022-09-17T07:08:44.074Z,59.67
2022-09-17T07:11:11.231Z,61.11
2022-09-17T07:13:38.499Z,63.08
2022-09-17T07:16:06.797Z,62.97
2022-09-17T07:18:34.527Z,63.61
2022-09-17T07:21:06.526Z,64.37
2022-09-17T07:23:36.413Z,66.06
2022-09-17T07:26:12.786Z,65.79
2022-09-17T07:28:41.002Z,65.02
2022-09-17T07:31:13.783Z,64.19
2022-09-17T07:33:44.093Z,64.57
2022-09-17T07:36:14.073Z,64.38
2022-09-17T07:38:41.172Z,64.19
2022-09-17T07:41:17.248Z,63.17
2022-09-17T07:43:44.950Z,61.93
2022-09-17T07:46:20.689Z,61.47
2022-09-17T07:48:49.041Z,61.17
2022-09-17T07:51:22.499Z,60.43
2022-09-17T07:53:58.017Z,59.91
2022-09-17T07:56:27.410Z,60.42
2022-09-17T07:58:54.978Z,59.34
2022-09-17T08:01:22.772Z,58.95
2022-09-17T08:03:52.603Z,59.13
2022-09-17T08:06:28.698Z,57.94
2022-09-17T08:08:58.766Z,58.21
2022-09-17T08:14:18.081Z,57.66
2022-09-17T08:16:47.458Z,56.87
2022-09-17T08:19:15.020Z,56.37
2022-09-17T08:21:42.183Z,55.23
2022-09-17T08:24:09.807Z,54.21
2022-09-17T08:26:36.795Z,54.19
2022-09-17T08:29:03.961Z,55.25
2022-09-17T08:31:33.313Z,54.62
2022-09-17T08:34:00.861Z,54.21
2022-09-17T08:36:28.683Z,55.17
2022-09-17T08:38:57.927Z,53.74
2022-09-17T08:41:40.678Z,53.00
2022-09-17T08:44:25.670Z,51.91
2022-09-17T08:47:23.338Z,50.81
2022-09-17T08:50:03.864Z,51.89
2022-09-17T08:52:56.309Z,51.13
2022-09-17T08:55:51.122Z,51.58
2022-09-17T08:58:42.357Z,50.23
2022-09-17T09:02:06.827Z,49.83
2022-09-17T09:05:02.655Z,49.20
2022-09-17T09:07:38.204Z,49.18
2022-09-17T09:10:13.347Z,49.43
2022-09-17T09:12:42.848Z,49.96
2022-09-17T09:15:30.440Z,49.34
2022-09-17T09:18:03.959Z,49.15
2022-09-17T09:20:49.856Z,49.12
2022-09-17T09:23:26.232Z,47.11
2022-09-17T09:26:14.131Z,47.57
2022-09-17T09:29:20.426Z,46.79
2022-09-17T09:32:16.876Z,46.42
2022-09-17T09:34:46.245Z,45.91
2022-09-17T09:37:28.862Z,46.38
2022-09-17T09:40:20.084Z,46.21
2022-09-17T09:42:49.890Z,46.05
2022-09-17T09:45:46.687Z,45.73
2022-09-17T09:49:00.882Z,45.59
2022-09-17T09:51:45.892Z,46.05
2022-09-17T09:54:56.899Z,45.60
2022-09-17T09:57:47.582Z,46.20
2022-09-17T10:00:39.301Z,46.39
2022-09-17T10:03:26.987Z,44.89
2022-09-17T10:06:02.425Z,45.74
2022-09-17T10:08:33.281Z,45.60
2022-09-17T10:11:01.040Z,46.22
2022-09-17T10:13:38.168Z,46.54
2022-09-17T10:16:25.317Z,49.63
2022-09-17T10:19:19.167Z,57.82
2022-09-17T10:21:46.462Z,60.12
2022-09-17T10:24:29.547Z,60.88
2022-09-17T10:27:07.812Z,60.07
2022-09-17T10:29:35.421Z,59.46
2022-09-17T10:32:06.928Z,59.56
2022-09-17T10:34:34.548Z,56.66
2022-09-17T10:37:01.671Z,55.76
2022-09-17T10:39:34.463Z,54.40
2022-09-17T10:42:12.251Z,54.50
2022-09-17T10:44:55.575Z,55.86
2022-09-17T10:47:29.621Z,54.10
2022-09-17T10:50:15.859Z,52.94
2022-09-17T10:52:50.818Z,51.91
2022-09-17T10:55:44.702Z,51.19
2022-09-17T10:58:46.837Z,49.91
2022-09-17T11:01:38.825Z,49.46
2022-09-17T11:04:18.099Z,46.86
2022-09-17T11:07:02.965Z,47.12
2022-09-17T11:10:10.931Z,48.69
2022-09-17T11:12:55.025Z,47.92
2022-09-17T11:15:53.051Z,48.72
2022-09-17T11:18:51.333Z,49.16
2022-09-17T11:21:21.172Z,48.62
2022-09-17T11:24:03.575Z,47.65
2022-09-17T11:26:49.075Z,47.78
2022-09-17T11:29:48.148Z,44.24
2022-09-17T11:32:39.398Z,40.34
2022-09-17T11:35:48.140Z,37.91
2022-09-17T11:38:27.943Z,34.89
2022-09-17T11:41:16.388Z,38.30
2022-09-17T11:44:17.049Z,43.04
2022-09-17T11:46:52.885Z,46.70
2022-09-17T11:49:36.305Z,47.93
2022-09-17T11:52:20.732Z,47.82
2022-09-17T11:54:58.263Z,48.15
2022-09-17T11:57:29.618Z,47.35
2022-09-17T12:00:08.124Z,46.71
2022-09-17T12:02:59.854Z,44.79
2022-09-17T12:05:43.698Z,43.51
2022-09-17T12:08:45.705Z,43.46
2022-09-17T12:12:07.625Z,45.00
2022-09-17T12:14:51.766Z,44.59
2022-09-17T12:17:33.896Z,44.74
2022-09-17T12:20:20.216Z,45.20
2022-09-17T12:22:50.229Z,44.40
2022-09-17T12:25:17.333Z,45.35
2022-09-17T12:28:03.643Z,45.10
2022-09-17T12:30:38.920Z,47.04
2022-09-17T12:33:20.941Z,46.26
2022-09-17T12:36:12.807Z,45.08
2022-09-17T12:39:10.162Z,42.70
2022-09-17T12:42:18.380Z,41.48
2022-09-17T12:45:19.246Z,38.55
2022-09-17T12:48:05.996Z,37.00
2022-09-17T12:50:44.978Z,34.00
2022-09-17T12:53:23.793Z,33.83
2022-09-17T12:56:32.185Z,34.48
2022-09-17T12:59:11.023Z,31.77
2022-09-17T13:02:20.703Z,30.64
2022-09-17T13:05:35.960Z,30.44
2022-09-17T13:08:43.831Z,32.82
2022-09-17T13:11:51.079Z,36.03
2022-09-17T13:14:56.580Z,40.29
2022-09-17T13:17:32.456Z,46.38
2022-09-17T13:20:33.811Z,48.28
2022-09-17T13:23:01.265Z,49.80
2022-09-17T13:25:28.541Z,50.19
2022-09-17T13:28:09.317Z,49.43
2022-09-17T13:30:56.992Z,47.19
2022-09-17T13:33:53.015Z,42.41
2022-09-17T13:36:54.807Z,37.99
2022-09-17T13:39:48.068Z,33.78
2022-09-17T13:42:28.096Z,32.17
2022-09-17T13:45:16.305Z,28.97
2022-09-17T13:48:06.049Z,28.95
2022-09-17T13:50:44.543Z,28.03
2022-09-17T13:53:14.757Z,26.07
2022-09-17T13:55:54.831Z,26.43
2022-09-17T13:58:25.689Z,25.82
2022-09-17T14:01:03.080Z,25.28
2022-09-17T14:03:40.798Z,24.17
2022-09-17T14:06:08.511Z,25.06
2022-09-17T14:08:44.845Z,26.17
2022-09-17T14:11:33.475Z,25.41
2022-09-17T14:14:06.558Z,26.76
2022-09-17T14:16:47.064Z,26.33
2022-09-17T14:19:24.475Z,26.74
2022-09-17T14:22:08.024Z,26.45
2022-09-17T14:24:44.417Z,25.71
2022-09-17T14:27:31.837Z,25.79
2022-09-17T14:30:20.085Z,26.84
2022-09-17T14:32:54.164Z,27.27
2022-09-17T14:35:23.690Z,27.73
2022-09-17T14:38:04.162Z,28.31
2022-09-17T14:40:34.363Z,28.90
2022-09-17T14:43:03.363Z,28.81
2022-09-17T14:45:41.706Z,27.73
2022-09-17T14:48:29.142Z,29.67
2022-09-17T14:51:18.537Z,30.75
2022-09-17T14:53:48.015Z,30.72
2022-09-17T14:56:22.446Z,32.68
2022-09-17T14:58:53.428Z,33.71
2022-09-17T15:01:30.210Z,34.69
2022-09-17T15:04:20.524Z,35.45
2022-09-17T15:06:47.871Z,36.20
2022-09-17T15:09:27.927Z,32.79
2022-09-17T15:11:58.881Z,30.51
2022-09-17T15:14:32.309Z,29.35
2022-09-17T15:17:02.278Z,29.11
2022-09-17T15:19:37.971Z,27.25
2022-09-17T15:22:30.373Z,26.13
2022-09-17T15:25:04.561Z,25.37
2022-09-17T15:27:40.456Z,26.69
2022-09-17T15:30:21.791Z,29.42
2022-09-17T15:32:57.328Z,31.62
2022-09-17T15:35:32.022Z,32.46
2022-09-17T15:38:27.659Z,33.08
2022-09-17T15:40:54.926Z,33.39
2022-09-17T15:43:32.981Z,33.36
2022-09-17T15:46:29.571Z,34.70
2022-09-17T15:49:02.545Z,35.81
2022-09-17T15:51:37.254Z,35.84
2022-09-17T15:54:06.820Z,35.50
2022-09-17T15:56:41.506Z,35.52
2022-09-17T15:59:30.132Z,35.33
2022-09-17T16:02:00.567Z,36.20
2022-09-17T16:04:35.280Z,37.16
2022-09-17T16:07:11.450Z,37.00
2022-09-17T16:09:40.664Z,37.02
2022-09-17T16:12:08.735Z,37.44
2022-09-17T16:14:35.889Z,37.46
2022-09-17T16:17:20.101Z,37.24
2022-09-17T16:19:47.308Z,37.71
2022-09-17T16:22:14.538Z,37.60
2022-09-17T16:24:41.697Z,37.24
2022-09-17T16:27:22.019Z,37.73
2022-09-17T16:29:51.608Z,37.90
2022-09-17T16:32:18.973Z,37.98
2022-09-17T16:34:46.209Z,38.18
2022-09-17T16:37:13.275Z,38.27
2022-09-17T16:39:40.768Z,38.40
2022-09-17T16:42:08.040Z,38.60
2022-09-17T16:44:35.375Z,39.37
2022-09-17T16:47:02.859Z,40.13
2022-09-17T16:49:29.927Z,40.55
2022-09-17T16:51:57.042Z,40.62
2022-09-17T16:54:24.462Z,40.79
2022-09-17T16:56:51.687Z,41.03
2022-09-17T16:59:19.282Z,41.32
2022-09-17T17:01:50.877Z,41.83
2022-09-17T17:04:18.106Z,41.04
2022-09-17T17:06:45.305Z,41.00
2022-09-17T17:09:12.725Z,41.13
2022-09-17T17:11:40.012Z,41.18
2022-09-17T17:14:09.518Z,41.16
2022-09-17T17:16:41.037Z,40.98
2022-09-17T17:19:08.767Z,41.12
2022-09-17T17:21:36.321Z,41.31
2022-09-17T17:24:04.008Z,41.29
2022-09-17T17:26:31.371Z,42.02
2022-09-17T17:28:58.754Z,42.24
2022-09-17T17:31:26.090Z,42.48
2022-09-17T17:33:53.266Z,42.41
2022-09-17T17:36:20.617Z,42.70
2022-09-17T17:38:48.424Z,43.68
2022-09-17T17:41:18.211Z,43.96
2022-09-17T17:43:45.601Z,44.17
2022-09-17T17:46:13.259Z,43.96
2022-09-17T17:48:40.583Z,44.43
2022-09-17T17:51:10.464Z,44.62
2022-09-17T17:53:41.195Z,44.67
2022-09-17T17:56:10.390Z,44.67
2022-09-17T17:58:38.060Z,44.67
2022-09-17T18:01:19.738Z,45.40
2022-09-17T18:03:47.592Z,45.42
2022-09-17T18:06:15.370Z,45.27
2022-09-17T18:08:45.270Z,45.05
2022-09-17T18:11:12.560Z,45.18
2022-09-17T18:13:40.144Z,45.29
2022-09-17T18:16:09.200Z,45.85
2022-09-17T18:18:44.868Z,46.20
2022-09-17T18:21:18.372Z,46.28
2022-09-17T18:23:46.879Z,46.32
2022-09-17T18:26:18.164Z,46.41
2022-09-17T18:28:46.898Z,46.55
2022-09-17T18:31:24.623Z,46.90
2022-09-17T18:34:14.320Z,47.38
2022-09-17T18:36:45.519Z,47.35
2022-09-17T18:42:04.464Z,47.97
2022-09-17T18:44:31.656Z,48.47
2022-09-17T18:46:58.995Z,48.33
2022-09-17T18:49:26.634Z,48.56
2022-09-17T18:51:53.797Z,48.70
2022-09-17T18:54:21.036Z,48.75
2022-09-17T18:56:48.296Z,48.77
2022-09-17T18:59:15.995Z,48.92
2022-09-17T19:01:43.431Z,48.59
2022-09-17T19:04:11.394Z,48.97
2022-09-17T19:06:39.732Z,48.74
2022-09-17T19:09:07.334Z,48.86
2022-09-17T19:11:36.726Z,48.87
2022-09-17T19:14:04.500Z,48.40
2022-09-17T19:16:32.093Z,48.23
2022-09-17T19:19:00.262Z,48.41
2022-09-17T19:21:27.797Z,48.61
2022-09-17T19:23:55.386Z,48.55
2022-09-17T19:26:27.079Z,48.37
2022-09-17T19:28:58.135Z,48.68
2022-09-17T19:31:26.261Z,49.35
2022-09-17T19:33:53.681Z,49.28
2022-09-17T19:36:21.376Z,49.43
2022-09-17T19:38:49.206Z,49.38
2022-09-17T19:41:19.773Z,49.34
2022-09-17T19:43:47.189Z,49.30
2022-09-17T19:46:18.075Z,49.34
2022-09-17T19:48:48.124Z,49.59
2022-09-17T19:51:17.270Z,50.61
2022-09-17T19:53:45.652Z,51.55
2022-09-17T19:56:23.374Z,51.86
2022-09-17T19:58:50.788Z,52.10
2022-09-17T20:01:19.128Z,52.56
2022-09-17T20:03:46.896Z,52.57
2022-09-17T20:06:16.997Z,52.87
2022-09-17T20:08:49.650Z,52.82
2022-09-17T20:11:21.890Z,53.34
2022-09-17T20:13:57.864Z,52.87
2022-09-17T20:16:27.900Z,52.96
2022-09-17T20:18:55.375Z,53.63
2022-09-17T20:21:29.564Z,54.47
2022-09-17T20:23:58.871Z,54.71
2022-09-17T20:26:27.387Z,55.23
2022-09-17T20:28:55.420Z,54.59
2022-09-17T20:31:29.420Z,55.70
2022-09-17T20:34:02.464Z,55.22
2022-09-17T20:36:33.387Z,55.13
2022-09-17T20:39:21.850Z,55.43
2022-09-17T20:41:48.277Z,55.89
2022-09-17T20:44:15.466Z,55.66
2022-09-17T20:46:44.197Z,56.13
2022-09-17T20:49:11.580Z,56.38
2022-09-17T20:51:38.789Z,58.44
2022-09-17T20:54:06.532Z,58.56
2022-09-17T20:56:34.683Z,59.47
2022-09-17T20:59:18.962Z,59.43
2022-09-17T21:01:49.853Z,59.94
2022-09-17T21:04:20.514Z,59.71
2022-09-17T21:06:52.371Z,59.73
2022-09-17T21:09:19.955Z,59.71
2022-09-17T21:11:48.869Z,59.38
2022-09-17T21:14:18.058Z,58.88
2022-09-17T21:16:46.593Z,58.59
2022-09-17T21:19:16.184Z,58.73
2022-09-17T21:21:44.045Z,58.24
2022-09-17T21:24:11.361Z,58.54
2022-09-17T21:26:38.507Z,57.95
2022-09-17T21:29:05.672Z,58.08
2022-09-17T21:31:37.113Z,57.72
2022-09-17T21:34:11.375Z,57.88
2022-09-17T21:36:41.271Z,58.11
2022-09-17T21:39:14.586Z,58.24
2022-09-17T21:41:43.354Z,58.05
2022-09-17T21:44:12.374Z,57.80
2022-09-17T21:46:41.488Z,57.36
2022-09-17T21:49:09.308Z,56.78
2022-09-17T21:51:42.282Z,56.71
2022-09-17T21:54:16.039Z,56.63
2022-09-17T21:56:47.211Z,57.25
2022-09-17T21:59:16.678Z,57.68
2022-09-17T22:01:48.881Z,57.84
2022-09-17T22:04:20.354Z,58.31
2022-09-17T22:06:49.551Z,58.66
2022-09-17T22:09:22.446Z,58.01
2022-09-17T22:11:49.800Z,58.31
2022-09-17T22:14:23.325Z,58.52
2022-09-17T22:16:56.917Z,58.79
2022-09-17T22:19:25.510Z,58.97
2022-09-17T22:21:56.312Z,59.05
2022-09-17T22:24:24.172Z,58.04
2022-09-17T22:26:57.216Z,57.96
2022-09-17T22:29:27.340Z,58.15
2022-09-17T22:31:54.436Z,58.34
2022-09-17T22:34:23.101Z,58.35
2022-09-17T22:36:50.677Z,57.93
2022-09-17T22:39:21.107Z,57.14
2022-09-17T22:41:48.364Z,57.70
2022-09-17T22:44:18.584Z,57.86
2022-09-17T22:46:48.354Z,59.92
2022-09-17T22:49:16.035Z,60.17
2022-09-17T22:51:44.953Z,61.91
2022-09-17T22:54:16.887Z,62.96
2022-09-17T22:56:44.795Z,62.90
2022-09-17T22:59:12.109Z,63.38
2022-09-17T23:01:40.796Z,64.10
2022-09-17T23:04:08.358Z,64.21
2022-09-17T23:06:39.586Z,64.37
2022-09-17T23:09:07.380Z,63.95
2022-09-17T23:11:37.971Z,63.57
2022-09-17T23:14:09.593Z,63.57
2022-09-17T23:16:43.624Z,63.63
2022-09-17T23:19:11.777Z,63.05
2022-09-17T23:21:39.838Z,62.70
2022-09-17T23:24:08.244Z,63.04
2022-09-17T23:26:35.761Z,63.49
2022-09-17T23:29:05.157Z,63.49
2022-09-17T23:31:34.948Z,63.28
2022-09-17T23:34:03.369Z,63.20
2022-09-17T23:36:35.016Z,62.73
2022-09-17T23:39:03.897Z,62.58
2022-09-17T23:41:40.670Z,63.52
2022-09-17T23:44:14.796Z,63.47
2022-09-17T23:46:44.312Z,63.52
2022-09-17T23:49:13.047Z,63.34
2022-09-17T23:51:40.542Z,62.63
2022-09-17T23:54:07.706Z,62.31
2022-09-17T23:56:35.368Z,62.97
2022-09-17T23:59:03.254Z,62.82
